createdAt,value
2019-04-20T00:02:12.504Z,99410.28
2019-04-20T00:04:39.009Z,99412.30
2019-04-20T00:07:10.085Z,99416.03
2019-04-20T00:09:45.427Z,99420.02
2019-04-20T00:12:19.083Z,99411.25
2019-04-20T00:14:44.070Z,99406.65
2019-04-20T00:17:13.934Z,99402.43
2019-04-20T00:19:47.552Z,99402.91
2019-04-20T00:22:23.389Z,99398.66
2019-04-20T00:25:12.638Z,99402.22
2019-04-20T00:27:59.695Z,99397.80
2019-04-20T00:30:31.560Z,99395.17
2019-04-20T00:32:55.891Z,99391.45
2019-04-20T00:35:16.879Z,99393.77
2019-04-20T00:37:46.751Z,99401.34
2019-04-20T00:40:17.122Z,99405.25
2019-04-20T00:42:51.794Z,99402.73
2019-04-20T00:45:25.208Z,99393.92
2019-04-20T00:47:57.359Z,99402.16
2019-04-20T00:50:36.739Z,99403.15
2019-04-20T00:53:03.150Z,99400.93
2019-04-20T00:55:25.192Z,99402.10
2019-04-20T00:58:03.728Z,99402.11
2019-04-20T01:00:40.542Z,99399.42
2019-04-20T01:03:14.271Z,99399.77
2019-04-20T01:06:06.271Z,99403.50
2019-04-20T01:08:23.389Z,99401.98
2019-04-20T01:10:56.562Z,99405.08
2019-04-20T01:13:26.700Z,99405.90
2019-04-20T01:16:04.731Z,99402.93
2019-04-20T01:18:27.597Z,99400.80
2019-04-20T01:21:04.977Z,99393.95
2019-04-20T01:23:35.585Z,99404.70
2019-04-20T01:26:05.548Z,99402.78
2019-04-20T01:28:46.388Z,99406.45
2019-04-20T01:31:17.746Z,99411.01
2019-04-20T01:33:46.093Z,99412.05
2019-04-20T01:36:26.248Z,99415.45
2019-04-20T01:38:52.238Z,99411.71
2019-04-20T01:41:09.612Z,99413.69
2019-04-20T01:43:39.568Z,99417.73
2019-04-20T01:46:15.528Z,99422.43
2019-04-20T01:48:42.888Z,99415.98
2019-04-20T01:51:19.715Z,99419.96
2019-04-20T01:54:02.060Z,99420.15
2019-04-20T01:56:31.655Z,99426.78
2019-04-20T01:59:04.697Z,99411.88
2019-04-20T02:01:39.690Z,99422.91
2019-04-20T02:04:15.743Z,99428.57
2019-04-20T02:06:48.586Z,99419.60
2019-04-20T02:09:19.090Z,99427.30
2019-04-20T02:11:48.777Z,99427.67
2019-04-20T02:14:25.674Z,99426.20
2019-04-20T02:16:57.774Z,99421.30
2019-04-20T02:19:34.774Z,99428.84
2019-04-20T02:22:03.823Z,99434.41
2019-04-20T02:24:23.718Z,99432.24
2019-04-20T02:26:53.655Z,99431.11
2019-04-20T02:29:44.612Z,99427.20
2019-04-20T02:32:22.447Z,99429.42
2019-04-20T02:40:13.085Z,99422.89
2019-04-20T02:42:46.703Z,99425.65
2019-04-20T02:45:17.386Z,99429.00
2019-04-20T02:50:15.547Z,99428.16
2019-04-20T02:52:50.618Z,99429.36
2019-04-20T02:55:15.219Z,99433.23
2019-04-20T02:57:55.163Z,99428.67
2019-04-20T03:00:12.647Z,99429.85
2019-04-20T03:02:34.549Z,99432.38
2019-04-20T03:05:05.664Z,99426.80
2019-04-20T03:07:36.206Z,99422.84
2019-04-20T03:10:14.073Z,99427.28
2019-04-20T03:12:44.861Z,99422.77
2019-04-20T03:15:20.884Z,99421.54
2019-04-20T03:17:50.776Z,99429.48
2019-04-20T03:20:23.092Z,99423.63
2019-04-20T03:23:11.717Z,99418.06
2019-04-20T03:25:45.064Z,99423.07
2019-04-20T03:28:14.063Z,99426.17
2019-04-20T03:33:31.008Z,99420.33
2019-04-20T03:35:58.019Z,99426.81
2019-04-20T03:38:24.587Z,99422.64
2019-04-20T03:40:45.299Z,99427.87
2019-04-20T03:43:02.674Z,99426.80
2019-04-20T03:45:41.614Z,99428.49
2019-04-20T03:48:17.165Z,99427.28
2019-04-20T03:51:00.509Z,99422.17
2019-04-20T03:53:29.939Z,99426.92
2019-04-20T03:56:01.984Z,99426.06
2019-04-20T03:58:47.210Z,99425.62
2019-04-20T04:01:43.332Z,99422.80
2019-04-20T04:04:05.353Z,99427.83
2019-04-20T04:06:24.372Z,99431.99
2019-04-20T04:08:58.920Z,99425.20
2019-04-20T04:11:31.447Z,99433.21
2019-04-20T04:13:48.131Z,99432.39
2019-04-20T04:16:21.582Z,99437.83
2019-04-20T04:19:02.838Z,99431.48
2019-04-20T04:21:38.307Z,99428.58
2019-04-20T04:24:05.601Z,99432.09
2019-04-20T04:26:38.914Z,99437.02
2019-04-20T04:29:19.154Z,99425.69
2019-04-20T04:31:57.731Z,99430.52
2019-04-20T04:34:20.631Z,99432.61
2019-04-20T04:36:53.726Z,99436.01
2019-04-20T04:39:29.384Z,99428.92
2019-04-20T04:42:01.872Z,99431.45
2019-04-20T04:44:19.281Z,99437.45
2019-04-20T04:46:44.624Z,99445.76
2019-04-20T04:49:18.033Z,99441.61
2019-04-20T04:51:49.177Z,99444.65
2019-04-20T04:54:22.007Z,99454.99
2019-04-20T04:56:41.948Z,99449.38
2019-04-20T04:59:12.766Z,99453.55
2019-04-20T05:01:48.867Z,99446.59
2019-04-20T05:04:33.914Z,99452.97
2019-04-20T05:06:59.491Z,99455.13
2019-04-20T05:09:19.363Z,99457.13
2019-04-20T05:11:49.692Z,99463.09
2019-04-20T05:14:26.187Z,99463.63
2019-04-20T05:17:09.934Z,99463.23
2019-04-20T05:19:50.772Z,99459.12
2019-04-20T05:22:22.944Z,99457.61
2019-04-20T05:24:56.715Z,99466.97
2019-04-20T05:27:36.105Z,99460.33
2019-04-20T05:29:44.731Z,99457.64
2019-04-20T05:32:18.788Z,99457.40
2019-04-20T05:35:10.883Z,99457.63
2019-04-20T05:37:45.176Z,99456.47
2019-04-20T05:40:12.854Z,99460.31
2019-04-20T05:42:43.957Z,99455.45
2019-04-20T05:45:11.808Z,99461.64
2019-04-20T05:47:44.115Z,99455.70
2019-04-20T05:50:08.243Z,99458.92
2019-04-20T05:52:56.322Z,99447.70
2019-04-20T05:55:20.911Z,99452.53
2019-04-20T05:57:56.980Z,99457.05
2019-04-20T06:00:27.805Z,99461.56
2019-04-20T06:02:54.901Z,99455.70
2019-04-20T06:05:27.508Z,99451.55
2019-04-20T06:07:59.299Z,99453.61
2019-04-20T06:10:38.457Z,99452.78
2019-04-20T06:13:00.241Z,99454.63
2019-04-20T06:15:39.271Z,99452.64
2019-04-20T06:18:12.345Z,99452.46
2019-04-20T06:20:48.432Z,99451.05
2019-04-20T06:23:47.129Z,99446.66
2019-04-20T06:26:26.783Z,99453.50
2019-04-20T06:28:40.602Z,99455.97
2019-04-20T06:31:19.039Z,99457.34
2019-04-20T06:36:53.533Z,99452.20
2019-04-20T06:39:30.924Z,99460.06
2019-04-20T06:42:15.187Z,99458.88
2019-04-20T06:49:36.804Z,99465.03
2019-04-20T06:52:23.098Z,99467.19
2019-04-20T06:54:55.132Z,99460.52
2019-04-20T06:57:30.977Z,99461.10
2019-04-20T06:59:59.792Z,99459.39
2019-04-20T07:02:36.044Z,99459.24
2019-04-20T07:05:05.345Z,99459.76
2019-04-20T07:07:41.884Z,99450.60
2019-04-20T07:10:14.761Z,99449.72
2019-04-20T07:12:37.914Z,99452.77
2019-04-20T07:14:58.647Z,99452.91
2019-04-20T07:18:02.996Z,99459.53
2019-04-20T07:20:19.332Z,99458.84
2019-04-20T07:23:03.064Z,99450.78
2019-04-20T07:25:34.138Z,99442.59
2019-04-20T07:28:02.960Z,99445.62
2019-04-20T07:30:35.325Z,99447.27
2019-04-20T07:33:04.308Z,99450.86
2019-04-20T07:35:36.008Z,99437.91
2019-04-20T07:40:38.359Z,99435.61
2019-04-20T07:43:13.350Z,99434.58
2019-04-20T07:45:36.439Z,99437.33
2019-04-20T07:48:14.983Z,99435.01
2019-04-20T07:50:37.325Z,99437.59
2019-04-20T07:53:13.555Z,99427.69
2019-04-20T07:55:50.765Z,99422.58
2019-04-20T07:58:10.959Z,99424.86
2019-04-20T08:03:39.458Z,99422.61
2019-04-20T08:06:11.527Z,99420.45
2019-04-20T08:08:54.087Z,99415.44
2019-04-20T08:11:21.609Z,99412.67
2019-04-20T08:14:01.976Z,99412.38
2019-04-20T08:16:43.919Z,99415.20
2019-04-20T08:19:00.580Z,99418.04
2019-04-20T08:21:37.356Z,99408.81
2019-04-20T08:24:02.015Z,99417.93
2019-04-20T08:26:23.086Z,99412.88
2019-04-20T08:29:20.577Z,99417.77
2019-04-20T08:32:17.873Z,99414.70
2019-04-20T08:34:52.210Z,99411.28
2019-04-20T08:37:17.212Z,99407.41
2019-04-20T08:39:58.408Z,99401.38
2019-04-20T08:42:21.699Z,99400.42
2019-04-20T08:45:04.162Z,99406.02
2019-04-20T08:50:20.982Z,99391.78
2019-04-20T08:55:19.763Z,99389.00
2019-04-20T08:57:33.609Z,99389.78
2019-04-20T09:00:07.090Z,99390.41
2019-04-20T09:02:41.220Z,99381.61
2019-04-20T09:05:24.890Z,99385.64
2019-04-20T09:07:53.179Z,99380.85
2019-04-20T09:10:39.521Z,99374.25
2019-04-20T09:13:02.557Z,99376.33
2019-04-20T09:15:21.134Z,99374.39
2019-04-20T09:17:58.223Z,99374.19
2019-04-20T09:20:36.511Z,99366.17
2019-04-20T09:23:18.166Z,99368.58
2019-04-20T09:28:29.276Z,99370.14
2019-04-20T09:31:21.158Z,99360.87
2019-04-20T09:34:01.610Z,99362.33
2019-04-20T09:36:27.606Z,99351.28
2019-04-20T09:39:15.303Z,99348.58
2019-04-20T09:41:59.100Z,99346.20
2019-04-20T09:44:13.389Z,99348.81
2019-04-20T09:46:50.926Z,99348.05
2019-04-20T09:49:24.483Z,99351.42
2019-04-20T09:52:03.982Z,99347.00
2019-04-20T09:54:40.468Z,99346.47
2019-04-20T09:57:10.459Z,99342.25
2019-04-20T09:59:37.286Z,99340.86
2019-04-20T10:02:02.176Z,99340.64
2019-04-20T10:04:24.058Z,99334.08
2019-04-20T10:06:55.124Z,99330.28
2019-04-20T10:09:30.584Z,99331.50
2019-04-20T10:11:57.561Z,99320.52
2019-04-20T10:14:27.278Z,99320.50
2019-04-20T10:16:57.980Z,99325.39
2019-04-20T10:19:32.515Z,99318.59
2019-04-20T10:22:00.389Z,99310.83
2019-04-20T10:24:30.632Z,99312.98
2019-04-20T10:27:00.819Z,99310.30
2019-04-20T10:29:31.296Z,99309.52
2019-04-20T10:32:05.544Z,99310.90
2019-04-20T10:34:32.830Z,99311.17
2019-04-20T10:37:03.745Z,99305.22
2019-04-20T10:39:36.289Z,99301.70
2019-04-20T10:42:06.218Z,99298.18
2019-04-20T10:44:36.955Z,99296.84
2019-04-20T10:47:07.286Z,99293.84
2019-04-20T10:49:38.424Z,99288.44
2019-04-20T10:52:09.486Z,99284.38
2019-04-20T10:54:40.618Z,99288.95
2019-04-20T10:57:10.431Z,99288.11
2019-04-20T10:59:41.456Z,99285.12
2019-04-20T11:02:12.119Z,99287.01
2019-04-20T11:04:41.993Z,99283.41
2019-04-20T11:07:12.499Z,99284.72
2019-04-20T11:09:42.828Z,99293.05
2019-04-20T11:12:12.661Z,99283.49
2019-04-20T11:14:45.219Z,99282.91
2019-04-20T11:17:14.138Z,99275.70
2019-04-20T11:19:45.258Z,99282.91
2019-04-20T11:22:16.608Z,99268.76
2019-04-20T11:24:46.491Z,99261.09
2019-04-20T11:27:16.328Z,99259.59
2019-04-20T11:29:46.384Z,99253.97
2019-04-20T11:32:16.310Z,99252.52
2019-04-20T11:34:47.090Z,99258.44
2019-04-20T11:37:17.230Z,99245.94
2019-04-20T11:39:47.485Z,99244.66
2019-04-20T11:42:17.448Z,99246.78
2019-04-20T11:44:48.705Z,99239.67
2019-04-20T11:47:18.907Z,99241.27
2019-04-20T11:49:49.382Z,99234.96
2019-04-20T11:52:21.185Z,99244.14
2019-04-20T11:54:50.770Z,99235.47
2019-04-20T11:57:21.569Z,99232.02
2019-04-20T11:59:52.904Z,99226.44
2019-04-20T12:02:44.732Z,99227.33
2019-04-20T12:05:24.960Z,99226.53
2019-04-20T12:08:04.955Z,99224.43
2019-04-20T12:10:35.262Z,99216.81
2019-04-20T12:13:05.867Z,99221.56
2019-04-20T12:15:38.607Z,99223.00
2019-04-20T12:18:09.524Z,99226.16
2019-04-20T12:20:40.876Z,99210.61
2019-04-20T12:23:10.778Z,99210.72
2019-04-20T12:25:42.456Z,99202.02
2019-04-20T12:28:13.562Z,99201.45
2019-04-20T12:30:43.901Z,99200.16
2019-04-20T12:33:13.743Z,99198.33
2019-04-20T12:35:44.500Z,99196.42
2019-04-20T12:38:14.927Z,99193.69
2019-04-20T12:40:46.110Z,99188.48
2019-04-20T12:43:17.216Z,99183.18
2019-04-20T12:45:47.714Z,99184.63
2019-04-20T12:48:17.700Z,99188.69
2019-04-20T12:50:47.926Z,99182.11
2019-04-20T12:53:17.691Z,99185.41
2019-04-20T12:55:48.448Z,99181.86
2019-04-20T12:58:18.669Z,99191.61
2019-04-20T13:00:52.235Z,99179.34
2019-04-20T13:03:23.578Z,99181.27
2019-04-20T13:05:54.232Z,99180.48
2019-04-20T13:08:31.804Z,99171.78
2019-04-20T13:11:00.307Z,99171.53
2019-04-20T13:13:48.271Z,99174.17
2019-04-20T13:16:20.593Z,99162.81
2019-04-20T13:18:53.052Z,99157.89
2019-04-20T13:21:23.072Z,99157.58
2019-04-20T13:23:53.198Z,99155.91
2019-04-20T13:26:23.255Z,99162.34
2019-04-20T13:28:55.138Z,99161.89
2019-04-20T13:31:26.124Z,99151.31
2019-04-20T13:33:57.178Z,99145.31
2019-04-20T13:36:28.517Z,99145.78
2019-04-20T13:38:59.579Z,99140.70
2019-04-20T13:41:29.927Z,99139.36
2019-04-20T13:44:01.446Z,99137.12
2019-04-20T13:46:31.649Z,99140.86
2019-04-20T13:49:01.283Z,99132.30
2019-04-20T13:51:31.110Z,99135.67
2019-04-20T13:54:01.755Z,99120.76
2019-04-20T13:56:32.329Z,99125.41
2019-04-20T13:59:07.558Z,99120.94
2019-04-20T14:01:41.186Z,99118.42
2019-04-20T14:04:11.097Z,99106.22
2019-04-20T14:06:41.980Z,99105.77
2019-04-20T14:09:12.461Z,99101.61
2019-04-20T14:11:43.449Z,99103.34
2019-04-20T14:14:13.438Z,99102.04
2019-04-20T14:16:43.405Z,99096.13
2019-04-20T14:19:14.372Z,99096.81
2019-04-20T14:21:44.388Z,99094.66
2019-04-20T14:24:15.049Z,99088.14
2019-04-20T14:26:45.800Z,99091.31
2019-04-20T14:29:16.873Z,99083.42
2019-04-20T14:31:47.998Z,99078.03
2019-04-20T14:34:17.753Z,99075.73
2019-04-20T14:36:48.724Z,99079.63
2019-04-20T14:39:18.615Z,99077.23
2019-04-20T14:41:48.677Z,99075.70
2019-04-20T14:44:19.612Z,99063.73
2019-04-20T14:46:49.752Z,99060.79
2019-04-20T14:49:20.838Z,99063.05
2019-04-20T14:51:50.791Z,99060.66
2019-04-20T14:54:21.340Z,99059.03
2019-04-20T14:56:51.699Z,99057.25
2019-04-20T14:59:29.583Z,99060.70
2019-04-20T15:02:01.124Z,99047.30
2019-04-20T15:04:32.226Z,99060.19
2019-04-20T15:07:02.486Z,99041.98
2019-04-20T15:09:36.881Z,99041.29
2019-04-20T15:12:06.727Z,99041.63
2019-04-20T15:14:36.848Z,99036.58
2019-04-20T15:17:08.902Z,99034.64
2019-04-20T15:19:41.356Z,99030.23
2019-04-20T15:22:31.660Z,99019.63
2019-04-20T15:25:01.596Z,99027.86
2019-04-20T15:27:31.370Z,99026.22
2019-04-20T15:30:02.555Z,99025.73
2019-04-20T15:32:33.198Z,99016.36
2019-04-20T15:35:03.202Z,99028.44
2019-04-20T15:37:33.125Z,99019.84
2019-04-20T15:40:03.427Z,99019.98
2019-04-20T15:42:33.526Z,99013.73
2019-04-20T15:45:05.270Z,99013.88
2019-04-20T15:47:36.120Z,99016.69
2019-04-20T15:50:07.921Z,99013.38
2019-04-20T15:52:43.216Z,99013.20
2019-04-20T15:55:18.140Z,99011.91
2019-04-20T15:57:40.706Z,99010.11
2019-04-20T16:00:11.031Z,99015.51
2019-04-20T16:02:41.216Z,99016.78
2019-04-20T16:05:16.565Z,99009.30
2019-04-20T16:07:52.461Z,99005.51
2019-04-20T16:10:19.266Z,99005.85
2019-04-20T16:13:02.980Z,99007.80
2019-04-20T16:15:21.999Z,99004.47
2019-04-20T16:17:53.238Z,99003.34
2019-04-20T16:20:25.038Z,98999.89
2019-04-20T16:22:54.839Z,98997.76
2019-04-20T16:25:35.511Z,99005.27
2019-04-20T16:28:05.762Z,98992.67
2019-04-20T16:30:35.940Z,98988.91
2019-04-20T16:33:06.266Z,98988.91
2019-04-20T16:35:36.406Z,98990.59
2019-04-20T16:38:06.731Z,98977.52
2019-04-20T16:40:37.721Z,98984.84
2019-04-20T16:43:17.976Z,98979.32
2019-04-20T16:45:39.241Z,98978.19
2019-04-20T16:48:10.396Z,98974.53
2019-04-20T16:50:40.762Z,98974.43
2019-04-20T16:53:10.773Z,98980.77
2019-04-20T16:55:40.955Z,98975.64
2019-04-20T16:58:10.854Z,98975.78
2019-04-20T17:00:41.281Z,98980.49
2019-04-20T17:03:11.224Z,98976.45
2019-04-20T17:05:41.277Z,98971.37
2019-04-20T17:08:11.277Z,98985.36
2019-04-20T17:10:41.406Z,98981.72
2019-04-20T17:13:11.611Z,98981.07
2019-04-20T17:15:41.494Z,98980.41
2019-04-20T17:18:11.755Z,98986.13
2019-04-20T17:20:41.714Z,98985.52
2019-04-20T17:23:11.384Z,98978.84
2019-04-20T17:25:41.923Z,98985.83
2019-04-20T17:28:25.266Z,98989.00
2019-04-20T17:31:13.513Z,98986.08
2019-04-20T17:33:58.168Z,98995.51
2019-04-20T17:36:21.495Z,98987.69
2019-04-20T17:38:54.128Z,98992.08
2019-04-20T17:41:40.159Z,98997.42
2019-04-20T17:44:10.015Z,98989.03
2019-04-20T17:46:37.188Z,98987.95
2019-04-20T17:49:09.626Z,98993.48
2019-04-20T17:51:47.621Z,98992.27
2019-04-20T17:54:03.097Z,98993.63
2019-04-20T17:56:28.686Z,98998.97
2019-04-20T17:58:58.569Z,98996.29
2019-04-20T18:01:41.274Z,98998.21
2019-04-20T18:04:39.800Z,99000.70
2019-04-20T18:06:47.880Z,99004.27
2019-04-20T18:09:34.409Z,99008.83
2019-04-20T18:11:45.362Z,99009.86
2019-04-20T18:14:28.637Z,99014.16
2019-04-20T18:17:13.841Z,99010.28
2019-04-20T18:19:34.211Z,99010.55
2019-04-20T18:22:03.830Z,99016.19
2019-04-20T18:24:59.917Z,99016.83
2019-04-20T18:27:27.856Z,99014.60
2019-04-20T18:29:53.368Z,99024.11
2019-04-20T18:32:09.812Z,99017.11
2019-04-20T18:34:45.827Z,99020.92
2019-04-20T18:37:16.883Z,99027.31
2019-04-20T18:39:53.431Z,99030.20
2019-04-20T18:42:23.404Z,99035.80
2019-04-20T18:45:09.283Z,99036.84
2019-04-20T18:47:39.422Z,99040.36
2019-04-20T18:50:01.119Z,99044.41
2019-04-20T18:52:21.987Z,99045.57
2019-04-20T18:54:55.295Z,99045.63
2019-04-20T18:57:26.067Z,99050.45
2019-04-20T18:59:56.682Z,99051.59
2019-04-20T19:02:30.880Z,99054.41
2019-04-20T19:04:59.923Z,99054.23
2019-04-20T19:07:34.849Z,99056.17
2019-04-20T19:10:13.870Z,99060.52
2019-04-20T19:12:42.448Z,99061.15
2019-04-20T19:15:37.995Z,99062.27
2019-04-20T19:18:07.794Z,99063.65
2019-04-20T19:20:30.650Z,99064.83
2019-04-20T19:23:02.022Z,99067.84
2019-04-20T19:25:36.971Z,99064.61
2019-04-20T19:28:05.083Z,99062.69
2019-04-20T19:30:44.268Z,99061.63
2019-04-20T19:33:23.010Z,99064.66
2019-04-20T19:35:46.843Z,99062.24
2019-04-20T19:38:17.393Z,99066.10
2019-04-20T19:40:51.254Z,99067.72
2019-04-20T19:43:22.590Z,99061.33
2019-04-20T19:46:24.116Z,99071.16
2019-04-20T19:48:28.269Z,99083.62
2019-04-20T19:51:10.184Z,99082.32
2019-04-20T19:53:37.898Z,99079.89
2019-04-20T19:56:01.220Z,99079.67
2019-04-20T19:58:32.794Z,99081.30
2019-04-20T20:00:57.711Z,99082.12
2019-04-20T20:03:26.118Z,99086.71
2019-04-20T20:05:57.807Z,99085.09
2019-04-20T20:08:31.048Z,99084.30
2019-04-20T20:11:01.345Z,99084.59
2019-04-20T20:13:36.174Z,99092.70
2019-04-20T20:16:09.684Z,99093.53
2019-04-20T20:18:49.130Z,99090.28
2019-04-20T20:21:21.903Z,99088.94
2019-04-20T20:23:36.707Z,99087.59
2019-04-20T20:26:09.067Z,99087.84
2019-04-20T20:28:47.070Z,99090.55
2019-04-20T20:31:22.348Z,99091.09
2019-04-20T20:33:54.582Z,99095.13
2019-04-20T20:36:19.736Z,99089.13
2019-04-20T20:38:49.291Z,99092.15
2019-04-20T20:41:25.404Z,99088.09
2019-04-20T20:43:56.558Z,99092.15
2019-04-20T20:46:27.536Z,99089.41
2019-04-20T20:49:21.183Z,99095.87
2019-04-20T20:51:43.763Z,99096.67
2019-04-20T20:54:03.728Z,99090.67
2019-04-20T20:56:29.129Z,99089.02
2019-04-20T20:59:04.089Z,99096.35
2019-04-20T21:01:37.819Z,99090.38
2019-04-20T21:03:58.532Z,99097.39
2019-04-20T21:06:28.728Z,99094.16
2019-04-20T21:09:01.308Z,99085.48
2019-04-20T21:11:34.018Z,99081.77
2019-04-20T21:14:01.391Z,99080.34
2019-04-20T21:16:33.400Z,99080.41
2019-04-20T21:19:20.193Z,99078.81
2019-04-20T21:21:46.350Z,99083.08
2019-04-20T21:24:14.529Z,99083.58
2019-04-20T21:26:44.107Z,99089.25
2019-04-20T21:29:13.622Z,99077.66
2019-04-20T21:31:56.782Z,99077.39
2019-04-20T21:34:19.558Z,99077.36
2019-04-20T21:36:47.280Z,99073.59
2019-04-20T21:39:31.261Z,99075.16
2019-04-20T21:41:56.045Z,99074.27
2019-04-20T21:44:25.238Z,99074.80
2019-04-20T21:46:54.597Z,99074.48
2019-04-20T21:49:36.141Z,99068.31
2019-04-20T21:52:01.134Z,99067.59
2019-04-20T21:54:26.284Z,99067.06
2019-04-20T21:57:01.619Z,99065.35
2019-04-20T21:59:36.283Z,99061.47
2019-04-20T22:02:07.773Z,99058.22
2019-04-20T22:04:31.638Z,99061.80
2019-04-20T22:07:02.553Z,99051.55
2019-04-20T22:09:40.417Z,99057.31
2019-04-20T22:12:04.036Z,99063.98
2019-04-20T22:14:34.024Z,99058.63
2019-04-20T22:17:05.489Z,99055.20
2019-04-20T22:19:44.111Z,99065.45
2019-04-20T22:22:18.659Z,99065.14
2019-04-20T22:24:53.921Z,99068.80
2019-04-20T22:27:19.464Z,99076.10
2019-04-20T22:29:41.802Z,99069.30
2019-04-20T22:32:13.789Z,99077.62
2019-04-20T22:34:47.585Z,99074.91
2019-04-20T22:37:21.261Z,99071.82
2019-04-20T22:39:52.570Z,99069.98
2019-04-20T22:42:20.444Z,99070.13
2019-04-20T22:44:58.733Z,99069.38
2019-04-20T22:47:27.051Z,99066.36
2019-04-20T22:50:16.309Z,99062.41
2019-04-20T22:52:40.857Z,99058.22
2019-04-20T22:55:22.396Z,99059.52
2019-04-20T22:57:44.768Z,99058.17
2019-04-20T23:00:06.281Z,99050.66
2019-04-20T23:02:31.529Z,99057.80
2019-04-20T23:05:02.721Z,99058.91
2019-04-20T23:07:32.758Z,99050.71
2019-04-20T23:10:03.772Z,99048.66
2019-04-20T23:12:34.050Z,99048.13
2019-04-20T23:15:04.647Z,99046.06
2019-04-20T23:17:39.909Z,99049.54
2019-04-20T23:20:15.156Z,99050.71
2019-04-20T23:22:45.248Z,99048.28
2019-04-20T23:25:11.262Z,99060.91
2019-04-20T23:27:42.090Z,99058.95
2019-04-20T23:30:23.668Z,99060.19
2019-04-20T23:32:46.069Z,99056.20
2019-04-20T23:35:19.777Z,99053.64
2019-04-20T23:37:48.506Z,99054.59
2019-04-20T23:40:19.488Z,99046.08
2019-04-20T23:42:57.881Z,99043.36
2019-04-20T23:45:38.813Z,99050.72
2019-04-20T23:48:08.483Z,99044.82
2019-04-20T23:50:54.405Z,99042.20
2019-04-20T23:53:28.417Z,99037.46
2019-04-20T23:55:43.632Z,99044.02
2019-04-20T23:58:14.685Z,99039.39
